Have a Safe July 4th! 

Flight Track Log - Related Links

Times and Time Zones

All times are in EDT time to prevent confusion due to time zone crossing. See the UAL33 flight status page for this flight to view local times or setup timezone preferences in your user account.

Time Position Orientation Groundspeed Altitude Reporting Facility
EDT Latitude Longitude Course Direction KTS MPH feet Rate Location/Type
Sat 04:57:32 AM 35.7450 140.3890 149° Southeast 167 192 900  Level FlightAware ADS-B
Sat 04:57:55 AM 35.7310 140.4000 147° Southeast 165 190 1,900 2,368 Climbing FlightAware ADS-B
Sat 04:58:10 AM 35.7210 140.4070 150° Southeast 167 192 2,400 1,902 Climbing FlightAware ADS-B
Sat 04:58:36 AM 35.7030 140.4200 150° Southeast 171 197 3,200 1,737 Climbing FlightAware ADS-B
Sat 04:58:48 AM 35.6940 140.4260 152° Southeast 183 211 3,500 1,125 Climbing FlightAware ADS-B
Sat 04:59:08 AM 35.6780 140.4380 149° Southeast 211 243 3,800 955 Climbing FlightAware ADS-B
Sat 04:59:32 AM 35.6560 140.4540 149° Southeast 241 277 4,200 1,167 Climbing FlightAware ADS-B
Sat 04:59:44 AM 35.6450 140.4620 149° Southeast 253 291 4,500 2,167 Climbing FlightAware ADS-B
Sat 05:00:08 AM 35.6190 140.4800 151° Southeast 264 304 5,500 2,455 Climbing FlightAware ADS-B
Sat 05:00:28 AM 35.5980 140.4960 148° Southeast 269 310 6,300 2,049 Climbing FlightAware ADS-B
Sat 05:00:49 AM 35.5760 140.5110 151° Southeast 273 314 6,900 1,167 Climbing FlightAware ADS-B
Sat 05:01:04 AM 35.5600 140.5240 147° Southeast 273 314 7,000 316 Climbing FlightAware ADS-B
Sat 05:01:08 AM 35.5560 140.5300 129° Southeast 274 315 7,000  Level FlightAware ADS-B
Sat 05:01:16 AM 35.5500 140.5410 124° Southeast 275 316 7,000  Level FlightAware ADS-B
Sat 05:01:26 AM 35.5460 140.5550 109° East 277 319 7,000  Level FlightAware ADS-B
Sat 05:01:46 AM 35.5430 140.5860 97° East 279 321 7,000  Level FlightAware ADS-B
Sat 05:02:06 AM 35.5400 140.6160 97° East 278 320 7,000  Level FlightAware ADS-B
Sat 05:02:26 AM 35.5370 140.6490 96° East 278 320 7,000  Level FlightAware ADS-B
Sat 05:02:50 AM 35.5340 140.6860 96° East 277 319 7,000  Level FlightAware ADS-B
Sat 05:03:10 AM 35.5300 140.7180 99° East 276 318 7,000  Level FlightAware ADS-B
Sat 05:03:22 AM 35.5290 140.7360 94° East 276 318 7,000  Level FlightAware ADS-B
Sat 05:03:46 AM 35.5250 140.7720 98° East 277 319 7,000  Level FlightAware ADS-B
Sat 05:04:06 AM 35.5220 140.8050 96° East 277 319 7,000  Level FlightAware ADS-B
Sat 05:04:26 AM 35.5190 140.8360 97° East 277 319 7,000 450 Level FlightAware ADS-B
Sat 05:04:46 AM 35.5160 140.8640 97° East 277 319 7,300 1,857 Climbing FlightAware ADS-B
Sat 05:05:08 AM 35.5120 140.9010 98° East 282 325 8,300 2,571 Climbing FlightAware ADS-B
Sat 05:05:28 AM 35.5090 140.9330 97° East 286 329 9,100 2,286 Climbing FlightAware ADS-B
Sat 05:05:50 AM 35.5050 140.9650 99° East 289 333 9,900 1,714 Climbing FlightAware ADS-B
Sat 05:06:24 AM 35.4990 141.0240 97° East 315 362 10,700 1,541 Climbing FlightAware ADS-B
Sat 05:07:04 AM 35.4900 141.1010 98° East 347 399 11,800 1,920 Climbing FlightAware ADS-B
Sat 05:07:39 AM 35.4710 141.1660 110° East 351 404 13,100 2,314 Climbing FlightAware ADS-B
Sat 05:08:14 AM 35.4510 141.2340 110° East 358 412 14,500 2,229 Climbing FlightAware ADS-B
Sat 05:08:49 AM 35.4300 141.3010 111° Southeast 371 427 15,700 1,971 Climbing FlightAware ADS-B
Sat 05:09:24 AM 35.4090 141.3700 110° East 380 437 16,800 1,886 Climbing FlightAware ADS-B
Sat 05:09:59 AM 35.3870 141.4420 111° Southeast 387 445 17,900 1,886 Climbing FlightAware ADS-B
Sat 05:10:34 AM 35.3650 141.5160 110° East 395 455 19,000 1,855 Climbing FlightAware ADS-B
Sat 05:10:54 AM 35.3570 141.5600 103° East 404 465 19,600 1,778 Climbing FlightAware ADS-B
Sat 05:11:28 AM 35.3600 141.6390 87° East 415 478 20,600 1,629 Climbing FlightAware ADS-B
Sat 05:12:04 AM 35.3650 141.7180 86° East 420 483 21,500 1,606 Climbing FlightAware ADS-B
Sat 05:12:39 AM 35.3710 141.8090 85° East 428 493 22,500 1,629 Climbing FlightAware ADS-B
Sat 05:13:14 AM 35.3760 141.8930 86° East 433 498 23,400 1,440 Climbing FlightAware ADS-B
Sat 05:13:54 AM 35.3800 141.9930 87° East 443 510 24,300 1,286 Climbing FlightAware ADS-B
Sat 05:14:24 AM 35.3840 142.0700 86° East 449 517 24,900 1,304 Climbing FlightAware ADS-B
Sat 05:15:03 AM 35.3890 142.1690 86° East 457 526 25,800 1,280 Climbing FlightAware ADS-B
Sat 05:15:39 AM 35.3940 142.2610 86° East 463 533 26,500 1,200 Climbing FlightAware ADS-B
Sat 05:16:13 AM 35.3990 142.3570 86° East 471 542 27,200 1,135 Climbing FlightAware ADS-B
Sat 05:16:53 AM 35.4040 142.4610 87° East 477 549 27,900 960 Climbing FlightAware ADS-B
Sat 05:17:28 AM 35.4110 142.5470 84° East 486 559 28,400 1,013 Climbing FlightAware ADS-B
Sat 05:18:10 AM 35.4370 142.6600 74° East 493 567 29,200 1,000 Climbing FlightAware ADS-B
Sat 05:18:46 AM 35.4630 142.7570 72° East 499 574 29,700 833 Climbing FlightAware ADS-B
Sat 05:19:22 AM 35.4870 142.8490 72° East 503 579 30,200 947 Climbing FlightAware ADS-B
Sat 05:20:02 AM 35.5180 142.9670 72° East 505 581 30,900 1,068 Climbing FlightAware ADS-B
Sat 05:20:35 AM 35.5400 143.0530 73° East 509 586 31,500 1,034 Climbing FlightAware ADS-B
Sat 05:21:29 AM 35.5800 143.2050 72° East 512 589 32,400 848 Climbing FlightAware ADS-B
Sat 05:22:14 AM 35.6100 143.3190 72° East 515 593 32,900 667 Climbing FlightAware ADS-B
Sat 05:22:50 AM 35.6370 143.4250 73° East 523 602 33,300 316 Climbing FlightAware ADS-B
Sat 05:23:30 AM 35.6610 143.5220 73° East 523 602 33,300 806 Level FlightAware ADS-B
Sat 05:23:57 AM 35.6870 143.6210 72° East 528 608 34,200 844 Climbing FlightAware ADS-B
Sat 05:24:34 AM 35.7100 143.7110 73° East 528 608 34,200  Level FlightAware ADS-B
Sat 05:25:10 AM 35.7320 143.7990 73° East 528 608 34,200  Level FlightAware ADS-B
Sat 05:25:46 AM 35.7530 143.8870 74° East 528 608 34,200  Level FlightAware ADS-B
Sat 05:26:24 AM 35.7760 143.9800 73° East 528 608 34,200  Level FlightAware ADS-B
Sat 05:27:00 AM 35.7980 144.0680 73° East 528 608 34,200  Level FlightAware ADS-B
Sat 05:27:37 AM 35.8210 144.1590 73° East 528 608 34,200  Level FlightAware ADS-B
Sat 05:28:13 AM 35.8430 144.2470 73° East 528 608 34,200  Level FlightAware ADS-B
Sat 05:28:49 AM 35.8640 144.3350 74° East 528 608 34,200  Level FlightAware ADS-B
Sat 05:29:26 AM 35.8870 144.4260 73° East 528 608 34,200  Level FlightAware ADS-B
Sat 05:30:02 AM 35.9090 144.5140 73° East 528 608 34,200  Level FlightAware ADS-B
Sat 05:30:38 AM 35.9310 144.6030 73° East 528 608 34,200  Level FlightAware ADS-B
Sat 05:31:14 AM 35.9520 144.6910 74° East 528 608 34,200  Level FlightAware ADS-B
Sat 05:31:50 AM 35.9740 144.7790 73° East 528 608 34,200  Level FlightAware ADS-B
Sat 05:32:26 AM 35.9960 144.8680 73° East 528 608 34,200  Level FlightAware ADS-B
Sat 05:33:02 AM 36.0180 144.9560 73° East 528 608 34,200  Level FlightAware ADS-B
Sat 05:33:38 AM 36.0400 145.0440 73° East 528 608 34,200 37 Level FlightAware ADS-B
Sat 05:36:00 AM 36.1413 145.4331 72° East  Level FlightAware Approximate
Sat 05:37:00 AM 36.1837 145.6012 73° East  Level FlightAware Approximate
Sat 05:38:00 AM 36.2317 145.7635 68° East  Level FlightAware Approximate
Sat 05:39:00 AM 36.2840 145.9240 68° East  Level FlightAware Approximate
Sat 05:40:00 AM 36.3360 146.0847 68° East  Level FlightAware Approximate
Sat 05:41:00 AM 36.3879 146.2456 68° East  Level FlightAware Approximate
Sat 05:42:00 AM 36.4295 146.4109 74° East  Level FlightAware Approximate
Sat 05:43:00 AM 36.4679 146.5778 74° East  Level FlightAware Approximate
Sat 05:44:00 AM 36.5060 146.7448 74° East  Level FlightAware Approximate
Sat 05:45:00 AM 36.5439 146.9119 74° East  Level FlightAware Approximate
Sat 05:46:00 AM 36.5815 147.0793 74° East  Level FlightAware Approximate
Sat 05:47:00 AM 36.6189 147.2468 74° East  Level FlightAware Approximate
Sat 05:48:00 AM 36.6561 147.4144 74° East  Level FlightAware Approximate
Sat 05:49:00 AM 36.6931 147.5822 75° East  Level FlightAware Approximate
Sat 05:50:00 AM 36.7298 147.7502 75° East  Level FlightAware Approximate
Sat 05:51:00 AM 36.7663 147.9183 75° East  Level FlightAware Approximate
Sat 05:52:00 AM 36.8025 148.0866 75° East  Level FlightAware Approximate
Sat 05:53:00 AM 36.8385 148.2551 75° East  Level FlightAware Approximate
Sat 05:54:00 AM 36.8743 148.4237 75° East  Level FlightAware Approximate
Sat 05:55:00 AM 36.8940 148.5961 84° East  Level FlightAware Approximate
Sat 05:56:00 AM 36.9080 148.7697 84° East  Level FlightAware Approximate
Sat 05:57:00 AM 36.9218 148.9434 84° East  Level FlightAware Approximate
Sat 05:58:00 AM 36.9353 149.1172 84° East  Level FlightAware Approximate
Sat 05:59:00 AM 36.9486 149.2910 84° East  Level FlightAware Approximate
Sat 06:00:00 AM 36.9616 149.4649 85° East  Level FlightAware Approximate
Sat 06:01:00 AM 36.9743 149.6389 85° East  Level FlightAware Approximate
Sat 06:02:00 AM 36.9868 149.8129 85° East  Level FlightAware Approximate
Sat 06:03:00 AM 36.9991 149.9870 85° East  Level FlightAware Approximate
Sat 06:04:00 AM 37.0655 150.1394 59° Northeast  Level FlightAware Approximate
Sat 06:05:00 AM 37.1361 150.2904 60° Northeast  Level FlightAware Approximate
Sat 06:06:00 AM 37.2066 150.4416 60° Northeast  Level FlightAware Approximate
Sat 06:07:00 AM 37.2768 150.5931 60° Northeast  Level FlightAware Approximate
Sat 06:08:00 AM 37.3468 150.7449 60° Northeast  Level FlightAware Approximate
Sat 06:09:00 AM 37.4167 150.8970 60° Northeast  Level FlightAware Approximate
Sat 06:10:00 AM 37.4860 151.0496 60° Northeast  Level FlightAware Approximate
Sat 06:11:00 AM 37.5550 151.2025 60° Northeast  Level FlightAware Approximate
Sat 06:12:00 AM 37.6238 151.3558 60° Northeast  Level FlightAware Approximate
Sat 06:13:00 AM 37.6924 151.5093 61° Northeast  Level FlightAware Approximate
Sat 06:14:00 AM 37.7608 151.6631 61° Northeast  Level FlightAware Approximate
Sat 06:15:00 AM 37.8290 151.8173 61° Northeast  Level FlightAware Approximate
Sat 06:16:00 AM 37.8970 151.9716 61° Northeast  Level FlightAware Approximate
Sat 06:17:00 AM 37.9648 152.1263 61° Northeast  Level FlightAware Approximate
Sat 06:18:00 AM 38.0324 152.2813 61° Northeast  Level FlightAware Approximate
Sat 06:19:00 AM 38.0998 152.4365 61° Northeast  Level FlightAware Approximate
Sat 06:20:00 AM 38.1670 152.5921 61° Northeast  Level FlightAware Approximate
Sat 06:21:00 AM 38.2339 152.7479 61° Northeast  Level FlightAware Approximate
Sat 06:22:00 AM 38.3007 152.9040 61° Northeast  Level FlightAware Approximate
Sat 06:23:00 AM 38.3673 153.0604 61° Northeast  Level FlightAware Approximate
Sat 06:24:00 AM 38.4336 153.2171 62° Northeast  Level FlightAware Approximate
Sat 06:25:00 AM 38.4998 153.3740 62° Northeast  Level FlightAware Approximate
Sat 06:26:00 AM 38.5657 153.5313 62° Northeast  Level FlightAware Approximate
Sat 06:27:00 AM 38.6315 153.6888 62° Northeast  Level FlightAware Approximate
Sat 06:28:00 AM 38.6970 153.8467 62° Northeast  Level FlightAware Approximate
Sat 06:29:00 AM 38.7623 154.0048 62° Northeast  Level FlightAware Approximate
Sat 06:30:00 AM 38.8274 154.1632 62° Northeast  Level FlightAware Approximate
Sat 06:31:00 AM 38.8922 154.3219 62° Northeast  Level FlightAware Approximate
Sat 06:32:00 AM 38.9569 154.4809 62° Northeast  Level FlightAware Approximate
Sat 06:33:00 AM 39.0213 154.6402 62° Northeast  Level FlightAware Approximate
Sat 06:34:00 AM 39.0856 154.7997 63° Northeast  Level FlightAware Approximate
Sat 06:35:00 AM 39.1496 154.9596 63° Northeast  Level FlightAware Approximate
Sat 06:36:00 AM 39.2134 155.1198 63° Northeast  Level FlightAware Approximate
Sat 06:37:00 AM 39.2769 155.2802 63° Northeast  Level FlightAware Approximate
Sat 06:38:00 AM 39.3403 155.4409 63° Northeast  Level FlightAware Approximate
Sat 06:39:00 AM 39.4034 155.6020 63° Northeast  Level FlightAware Approximate
Sat 06:40:00 AM 39.4663 155.7633 63° Northeast  Level FlightAware Approximate
Sat 06:41:00 AM 39.5290 155.9249 63° Northeast  Level FlightAware Approximate
Sat 06:42:00 AM 39.5914 156.0868 63° Northeast  Level FlightAware Approximate
Sat 06:43:00 AM 39.6536 156.2490 63° Northeast  Level FlightAware Approximate
Sat 06:44:00 AM 39.7156 156.4115 64° Northeast  Level FlightAware Approximate
Sat 06:45:00 AM 39.7774 156.5743 64° Northeast  Level FlightAware Approximate
Sat 06:46:00 AM 39.8389 156.7374 64° Northeast  Level FlightAware Approximate
Sat 06:47:00 AM 39.9002 156.9008 64° Northeast  Level FlightAware Approximate
Sat 06:48:00 AM 39.9613 157.0645 64° Northeast  Level FlightAware Approximate
Sat 06:49:00 AM 40.0221 157.2284 64° Northeast  Level FlightAware Approximate
Sat 06:50:00 AM 40.0827 157.3927 64° Northeast  Level FlightAware Approximate
Sat 06:51:00 AM 40.1431 157.5572 64° Northeast  Level FlightAware Approximate
Sat 06:52:00 AM 40.2033 157.7220 64° Northeast  Level FlightAware Approximate
Sat 06:53:00 AM 40.2632 157.8872 65° Northeast  Level FlightAware Approximate
Sat 06:54:00 AM 40.3228 158.0526 65° Northeast  Level FlightAware Approximate
Sat 06:55:00 AM 40.3823 158.2183 65° Northeast  Level FlightAware Approximate
Sat 06:56:00 AM 40.4415 158.3843 65° Northeast  Level FlightAware Approximate
Sat 06:57:00 AM 40.5004 158.5506 65° Northeast  Level FlightAware Approximate
Sat 06:58:00 AM 40.5592 158.7172 65° Northeast  Level FlightAware Approximate
Sat 06:59:00 AM 40.6169 158.8818 65° Northeast  Level FlightAware Approximate
Sat 07:00:00 AM 40.6743 159.0466 65° Northeast  Level FlightAware Approximate
Sat 07:01:00 AM 40.7315 159.2118 65° Northeast  Level FlightAware Approximate
Sat 07:02:00 AM 40.7885 159.3772 65° Northeast  Level FlightAware Approximate
Sat 07:03:00 AM 40.8452 159.5430 66° East  Level FlightAware Approximate
Sat 07:04:00 AM 40.9017 159.7090 66° East  Level FlightAware Approximate
Sat 07:05:00 AM 40.9580 159.8753 66° East  Level FlightAware Approximate
Sat 07:06:00 AM 41.0108 160.0435 72° East  Level FlightAware Approximate
Sat 07:07:00 AM 41.0539 160.2168 72° East  Level FlightAware Approximate
Sat 07:08:00 AM 41.0967 160.3904 72° East  Level FlightAware Approximate
Sat 07:09:00 AM 41.1393 160.5641 72° East  Level FlightAware Approximate
Sat 07:10:00 AM 41.1815 160.7381 72° East  Level FlightAware Approximate
Sat 07:11:00 AM 41.2235 160.9124 72° East  Level FlightAware Approximate
Sat 07:12:00 AM 41.2653 161.0868 72° East  Level FlightAware Approximate
Sat 07:13:00 AM 41.3068 161.2615 72° East  Level FlightAware Approximate
Sat 07:14:00 AM 41.3480 161.4364 73° East  Level FlightAware Approximate
Sat 07:15:00 AM 41.3890 161.6115 73° East  Level FlightAware Approximate
Sat 07:16:00 AM 41.4297 161.7869 73° East  Level FlightAware Approximate
Sat 07:17:00 AM 41.4701 161.9624 73° East  Level FlightAware Approximate
Sat 07:18:00 AM 41.5103 162.1382 73° East  Level FlightAware Approximate
Sat 07:19:00 AM 41.5502 162.3142 73° East  Level FlightAware Approximate
Sat 07:20:00 AM 41.5898 162.4904 73° East  Level FlightAware Approximate
Sat 07:21:00 AM 41.6291 162.6668 73° East  Level FlightAware Approximate
Sat 07:22:00 AM 41.6682 162.8435 73° East  Level FlightAware Approximate
Sat 07:23:00 AM 41.7070 163.0203 74° East  Level FlightAware Approximate
Sat 07:24:00 AM 41.7456 163.1974 74° East  Level FlightAware Approximate
Sat 07:25:00 AM 41.7838 163.3747 74° East  Level FlightAware Approximate
Sat 07:26:00 AM 41.8218 163.5522 74° East  Level FlightAware Approximate
Sat 07:27:00 AM 41.8596 163.7299 74° East  Level FlightAware Approximate
Sat 07:28:00 AM 41.8970 163.9078 74° East  Level FlightAware Approximate
Sat 07:29:00 AM 41.9342 164.0859 74° East  Level FlightAware Approximate
Sat 07:30:00 AM 41.9711 164.2642 74° East  Level FlightAware Approximate
Sat 07:31:00 AM 42.0077 164.4428 75° East  Level FlightAware Approximate
Sat 07:32:00 AM 42.0441 164.6215 75° East  Level FlightAware Approximate
Sat 07:33:00 AM 42.0801 164.8004 75° East  Level FlightAware Approximate
Sat 07:34:00 AM 42.1159 164.9796 75° East  Level FlightAware Approximate
Sat 07:35:00 AM 42.1504 165.1593 75° East  Level FlightAware Approximate
Sat 07:36:00 AM 42.1846 165.3392 76° East  Level FlightAware Approximate
Sat 07:37:00 AM 42.2186 165.5193 76° East  Level FlightAware Approximate
Sat 07:38:00 AM 42.2522 165.6995 76° East  Level FlightAware Approximate
Sat 07:39:00 AM 42.2856 165.8800 76° East  Level FlightAware Approximate
Sat 07:40:00 AM 42.3187 166.0607 76° East  Level FlightAware Approximate
Sat 07:41:00 AM 42.3516 166.2415 76° East  Level FlightAware Approximate
Sat 07:41:24 AM 42.4333 166.6833 76° East 487 560 39,000  Level Oakland Oceanic (ODAPS)
Sat 07:42:00 AM 42.3858 166.4220 76° East  Level FlightAware Approximate
Sat 07:43:00 AM 42.4198 166.6026 76° East  Level FlightAware Approximate
Sat 07:44:00 AM 42.4535 166.7835 76° East  Level FlightAware Approximate
Sat 07:45:00 AM 42.4869 166.9645 76° East  Level FlightAware Approximate
Sat 07:46:00 AM 42.5201 167.1457 76° East  Level FlightAware Approximate
Sat 07:47:00 AM 42.6226 167.7241 76° East 487 560 39,000  Level FlightAware Transoceanic
Sat 07:48:00 AM 42.6532 167.8982 77° East 487 560 39,000  Level FlightAware Transoceanic
Sat 07:49:00 AM 42.6836 168.0724 77° East 487 560 39,000  Level FlightAware Transoceanic
Sat 07:50:00 AM 42.7137 168.2468 77° East 487 560 39,000  Level FlightAware Transoceanic
Sat 07:51:00 AM 42.7435 168.4214 77° East 487 560 39,000  Level FlightAware Transoceanic
Sat 07:52:00 AM 42.7731 168.5961 77° East 487 560 39,000  Level FlightAware Transoceanic
Sat 07:53:00 AM 42.8024 168.7711 77° East 487 560 39,000  Level FlightAware Transoceanic
Sat 07:54:00 AM 42.8314 168.9461 77° East 487 560 39,000  Level FlightAware Transoceanic
Sat 07:55:00 AM 42.8602 169.1214 77° East 487 560 39,000  Level FlightAware Transoceanic
Sat 07:55:13 AM 42.8667 169.1333 78° East 469 540 39,000  Level Oakland Oceanic (ODAPS)
Sat 07:56:00 AM 42.8887 169.2968 78° East 487 560 39,000  Level FlightAware Transoceanic
Sat 07:57:00 AM 42.9169 169.4724 78° East 487 560 39,000  Level FlightAware Transoceanic
Sat 07:58:00 AM 42.9449 169.6481 78° East 487 560 39,000  Level FlightAware Transoceanic
Sat 07:59:00 AM 42.9726 169.8240 78° East 487 560 39,000  Level FlightAware Transoceanic
Sat 08:00:00 AM 43.0000 170.0000 87° East 487 560 39,000  Level FlightAware Transoceanic
Sat 08:00:13 AM 43.0000 170.0000 87° East 490 564 39,000  Level Oakland Oceanic (ODAPS)
Sat 08:01:00 AM 43.0084 170.1956 87° East 469 540 39,000  Level FlightAware Transoceanic
Sat 08:02:00 AM 43.0164 170.3913 87° East 469 540 39,000  Level FlightAware Transoceanic
Sat 08:03:00 AM 43.0241 170.5871 87° East 469 540 39,000  Level FlightAware Transoceanic
Sat 08:04:00 AM 43.0315 170.7829 87° East 469 540 39,000  Level FlightAware Transoceanic
Sat 08:05:00 AM 43.0385 170.9787 87° East 469 540 39,000  Level FlightAware Transoceanic
Sat 08:06:00 AM 43.0430 171.1093 87° East 490 564 39,000  Level FlightAware Transoceanic
Sat 08:07:00 AM 43.0491 171.2943 87° East 490 564 39,000  Level FlightAware Transoceanic
Sat 08:08:00 AM 43.0550 171.4794 88° East 490 564 39,000  Level FlightAware Transoceanic
Sat 08:09:00 AM 43.0605 171.6645 88° East 490 564 39,000  Level FlightAware Transoceanic
Sat 08:09:06 AM 43.0667 171.6167 88° East 490 564 39,000  Level Oakland Oceanic (ODAPS)
Sat 08:10:00 AM 43.0657 171.8496 88° East 490 564 39,000  Level FlightAware Transoceanic
Sat 08:11:00 AM 43.0707 172.0348 88° East 490 564 39,000  Level FlightAware Transoceanic
Sat 08:12:00 AM 43.0753 172.2200 88° East 490 564 39,000  Level FlightAware Transoceanic
Sat 08:13:00 AM 43.0797 172.4052 88° East 490 564 39,000  Level FlightAware Transoceanic
Sat 08:14:00 AM 43.0837 172.5904 88° East 490 564 39,000  Level FlightAware Transoceanic
Sat 08:15:00 AM 43.0932 172.7343 89° East 490 564 39,000  Level FlightAware Transoceanic
Sat 08:16:00 AM 43.0965 172.9207 89° East 490 564 39,000  Level FlightAware Transoceanic
Sat 08:17:00 AM 43.0996 173.1071 89° East 490 564 39,000  Level FlightAware Transoceanic
Sat 08:18:00 AM 43.1023 173.2935 89° East 490 564 39,000  Level FlightAware Transoceanic
Sat 08:19:00 AM 43.1048 173.4799 89° East 490 564 39,000  Level FlightAware Transoceanic
Sat 08:20:00 AM 43.1069 173.6663 89° East 490 564 39,000  Level FlightAware Transoceanic
Sat 08:21:00 AM 43.1088 173.8527 89° East 490 564 39,000  Level FlightAware Transoceanic
Sat 08:22:00 AM 43.1103 174.0392 89° East 490 564 39,000  Level FlightAware Transoceanic
Sat 08:22:57 AM 43.1000 174.1833 89° East 497 572 39,000  Level Oakland Oceanic (ODAPS)
Sat 08:23:00 AM 43.1116 174.2256 90° East 490 564 39,000  Level FlightAware Transoceanic
Sat 08:24:00 AM 43.1125 174.4121 90° East 490 564 39,000  Level FlightAware Transoceanic
Sat 08:25:00 AM 43.1131 174.5986 90° East 490 564 39,000  Level FlightAware Transoceanic
Sat 08:26:00 AM 43.1135 174.7850 90° East 490 564 39,000  Level FlightAware Transoceanic
Sat 08:27:00 AM 43.1135 174.9715 90° East 490 564 39,000  Level FlightAware Transoceanic
Sat 08:28:00 AM 43.1132 175.1580 90° East 490 564 39,000  Level FlightAware Transoceanic
Sat 08:29:00 AM 43.1037 175.3102 90° East 497 572 39,000  Level FlightAware Transoceanic
Sat 08:30:00 AM 43.1032 175.4980 90° East 497 572 39,000  Level FlightAware Transoceanic
Sat 08:31:00 AM 43.1024 175.6858 90° East 497 572 39,000  Level FlightAware Transoceanic
Sat 08:32:00 AM 43.1013 175.8736 91° East 497 572 39,000  Level FlightAware Transoceanic
Sat 08:33:00 AM 43.0999 176.0614 91° East 497 572 39,000  Level FlightAware Transoceanic
Sat 08:34:00 AM 43.0983 176.2492 91° East 497 572 39,000  Level FlightAware Transoceanic
Sat 08:35:00 AM 43.0963 176.4370 91° East 497 572 39,000  Level FlightAware Transoceanic
Sat 08:36:00 AM 43.0939 176.6247 91° East 497 572 39,000  Level FlightAware Transoceanic
Sat 08:36:50 AM 43.1000 176.7833 91° East 508 585 39,000  Level Oakland Oceanic (ODAPS)
Sat 08:37:00 AM 43.0913 176.8125 91° East 497 572 39,000  Level FlightAware Transoceanic
Sat 08:38:00 AM 43.0884 177.0002 91° East 497 572 39,000  Level FlightAware Transoceanic
Sat 08:39:00 AM 43.0852 177.1879 91° East 497 572 39,000  Level FlightAware Transoceanic
Sat 08:40:00 AM 43.0816 177.3756 92° East 497 572 39,000  Level FlightAware Transoceanic
Sat 08:41:00 AM 43.0778 177.5632 92° East 497 572 39,000  Level FlightAware Transoceanic
Sat 08:42:00 AM 43.0737 177.7509 92° East 497 572 39,000  Level FlightAware Transoceanic
Sat 08:43:00 AM 43.0731 177.9908 92° East 508 585 39,000  Level FlightAware Transoceanic
Sat 08:44:00 AM 43.0673 178.1919 92° East 508 585 39,000  Level FlightAware Transoceanic
Sat 08:45:00 AM 43.0613 178.3930 92° East 508 585 39,000  Level FlightAware Transoceanic
Sat 08:46:00 AM 43.0548 178.5940 93° East 508 585 39,000  Level FlightAware Transoceanic
Sat 08:47:00 AM 43.0481 178.7950 93° East 508 585 39,000  Level FlightAware Transoceanic
Sat 08:48:00 AM 43.0409 178.9960 93° East 508 585 39,000  Level FlightAware Transoceanic
Sat 08:49:00 AM 43.0334 179.1969 93° East 508 585 39,000  Level FlightAware Transoceanic
Sat 08:50:00 AM 43.0256 179.3978 93° East 508 585 39,000  Level FlightAware Transoceanic
Sat 08:50:41 AM 43.0167 179.4667 92° East 513 590 39,000  Level Oakland Oceanic (ODAPS)
Sat 08:51:00 AM 43.0174 179.5986 93° East 508 585 39,000  Level FlightAware Transoceanic
Sat 08:52:00 AM 43.0089 179.7993 93° East 508 585 39,000  Level FlightAware Transoceanic
Sat 08:53:00 AM 43.0000 -180.0000 79° East 508 585 39,000  Level FlightAware Transoceanic
Sat 08:53:32 AM 43.0000 180.0000 79° East 519 597 39,000  Level Oakland Oceanic (ODAPS)
Sat 08:54:00 AM 43.0285 -179.8037 79° East 508 585 39,000  Level FlightAware Transoceanic
Sat 08:55:00 AM 43.0566 -179.6071 79° East 508 585 39,000  Level FlightAware Transoceanic
Sat 08:56:00 AM 43.0843 -179.4104 79° East 508 585 39,000  Level FlightAware Transoceanic
Sat 08:57:00 AM 43.1118 -179.2135 79° East 513 590 39,000  Level FlightAware Transoceanic
Sat 08:58:00 AM 43.1389 -179.0165 79° East 513 590 39,000  Level FlightAware Transoceanic
Sat 08:59:00 AM 43.1625 -178.8425 80° East 519 597 39,000  Level FlightAware Transoceanic
Sat 09:00:00 AM 43.1885 -178.6490 80° East 519 597 39,000  Level FlightAware Transoceanic
Sat 09:01:00 AM 43.2141 -178.4553 80° East 519 597 39,000  Level FlightAware Transoceanic
Sat 09:02:00 AM 43.2394 -178.2615 80° East 519 597 39,000  Level FlightAware Transoceanic
Sat 09:03:00 AM 43.2644 -178.0675 80° East 519 597 39,000  Level FlightAware Transoceanic
Sat 09:04:00 AM 43.2890 -177.8733 80° East 519 597 39,000  Level FlightAware Transoceanic
Sat 09:04:44 AM 43.2833 -177.8667 80° East 524 603 39,000  Level Oakland Oceanic (ODAPS)
Sat 09:05:00 AM 43.3133 -177.6790 80° East 519 597 39,000  Level FlightAware Transoceanic
Sat 09:06:00 AM 43.3373 -177.4845 80° East 519 597 39,000  Level FlightAware Transoceanic
Sat 09:07:00 AM 43.3609 -177.2899 81° East 519 597 39,000  Level FlightAware Transoceanic
Sat 09:08:00 AM 43.3843 -177.0952 81° East 519 597 39,000  Level FlightAware Transoceanic
Sat 09:09:00 AM 43.4072 -176.9003 81° East 519 597 39,000  Level FlightAware Transoceanic
Sat 09:10:00 AM 43.4299 -176.7052 81° East 519 597 39,000  Level FlightAware Transoceanic
Sat 09:11:00 AM 43.4475 -176.5046 81° East 524 603 39,000  Level FlightAware Transoceanic
Sat 09:12:00 AM 43.4696 -176.3094 81° East 524 603 39,000  Level FlightAware Transoceanic
Sat 09:13:00 AM 43.4914 -176.1141 81° East 524 603 39,000  Level FlightAware Transoceanic
Sat 09:14:00 AM 43.5129 -175.9186 81° East 524 603 39,000  Level FlightAware Transoceanic
Sat 09:15:00 AM 43.5340 -175.7231 82° East 524 603 39,000  Level FlightAware Transoceanic
Sat 09:16:00 AM 43.5548 -175.5273 82° East 524 603 39,000  Level FlightAware Transoceanic
Sat 09:17:00 AM 43.5753 -175.3315 82° East 524 603 39,000  Level FlightAware Transoceanic
Sat 09:18:00 AM 43.5954 -175.1355 82° East 524 603 39,000  Level FlightAware Transoceanic
Sat 09:19:00 AM 43.6152 -174.9393 82° East 524 603 39,000  Level FlightAware Transoceanic
Sat 09:20:00 AM 43.6347 -174.7431 82° East 524 603 39,000  Level FlightAware Transoceanic
Sat 09:21:00 AM 43.6538 -174.5467 82° East 524 603 39,000  Level FlightAware Transoceanic
Sat 09:21:25 AM 43.6000 -175.1333 82° East 528 608 39,000  Level Oakland Oceanic (ODAPS)
Sat 09:22:00 AM 43.6726 -174.3502 83° East 524 603 39,000  Level FlightAware Transoceanic
Sat 09:23:00 AM 43.6910 -174.1536 83° East 524 603 39,000  Level FlightAware Transoceanic
Sat 09:24:00 AM 43.7091 -173.9568 83° East 524 603 39,000  Level FlightAware Transoceanic
Sat 09:25:00 AM 43.7269 -173.7600 83° East 524 603 39,000  Level FlightAware Transoceanic
Sat 09:26:00 AM 43.7444 -173.5630 83° East 524 603 39,000  Level FlightAware Transoceanic
Sat 09:27:00 AM 43.7644 -173.3644 83° East 528 608 39,000  Level FlightAware Transoceanic
Sat 09:28:00 AM 43.7810 -173.1673 83° East 528 608 39,000  Level FlightAware Transoceanic
Sat 09:29:00 AM 43.7973 -172.9700 84° East 528 608 39,000  Level FlightAware Transoceanic
Sat 09:30:00 AM 43.8132 -172.7727 84° East 528 608 39,000  Level FlightAware Transoceanic
Sat 09:31:00 AM 43.8287 -172.5753 84° East 528 608 39,000  Level FlightAware Transoceanic
Sat 09:32:00 AM 43.8439 -172.3777 84° East 528 608 39,000  Level FlightAware Transoceanic
Sat 09:32:18 AM 43.8500 -172.3167 84° East 540 621 39,000  Level Oakland Oceanic (ODAPS)
Sat 09:33:00 AM 43.8588 -172.1801 84° East 528 608 39,000  Level FlightAware Transoceanic
Sat 09:34:00 AM 43.8734 -171.9823 84° East 528 608 39,000  Level FlightAware Transoceanic
Sat 09:35:00 AM 43.8876 -171.7845 84° East 528 608 39,000  Level FlightAware Transoceanic
Sat 09:36:00 AM 43.9014 -171.5865 85° East 528 608 39,000  Level FlightAware Transoceanic
Sat 09:37:00 AM 43.9150 -171.3885 85° East 528 608 39,000  Level FlightAware Transoceanic
Sat 09:38:00 AM 43.9376 -171.0545 85° East 540 621 39,000  Level FlightAware Transoceanic
Sat 09:39:00 AM 43.9509 -170.8438 85° East 540 621 39,000  Level FlightAware Transoceanic
Sat 09:40:00 AM 43.9637 -170.6329 85° East 540 621 39,000  Level FlightAware Transoceanic
Sat 09:41:00 AM 43.9762 -170.4220 85° East 540 621 39,000  Level FlightAware Transoceanic
Sat 09:42:00 AM 43.9883 -170.2111 86° East 540 621 39,000  Level FlightAware Transoceanic
Sat 09:43:00 AM 44.0000 -170.0000 87° East 540 621 39,000  Level FlightAware Transoceanic
Sat 09:43:30 AM 44.0000 -170.0000 87° East 540 621 39,000  Level Oakland Oceanic (ODAPS)
Sat 09:44:00 AM 44.0089 -169.7921 87° East 540 621 39,000  Level FlightAware Transoceanic
Sat 09:45:00 AM 44.0174 -169.5842 87° East 540 621 39,000  Level FlightAware Transoceanic
Sat 09:46:00 AM 44.0256 -169.3763 87° East 540 621 39,000  Level FlightAware Transoceanic
Sat 09:46:09 AM 44.0167 -169.4333 87° East 543 625 39,000  Level Oakland Oceanic (ODAPS)
Sat 09:47:00 AM 44.0333 -169.1682 87° East 540 621 39,000  Level FlightAware Transoceanic
Sat 09:48:00 AM 44.0407 -168.9601 87° East 540 621 39,000  Level FlightAware Transoceanic
Sat 09:49:00 AM 44.0477 -168.7520 87° East 540 621 39,000  Level FlightAware Transoceanic
Sat 09:50:00 AM 44.0544 -168.5438 88° East 540 621 39,000  Level FlightAware Transoceanic
Sat 09:51:00 AM 44.0606 -168.3356 88° East 540 621 39,000  Level FlightAware Transoceanic
Sat 09:52:00 AM 44.0593 -168.1770 88° East 543 625 39,000  Level FlightAware Transoceanic
Sat 09:53:00 AM 44.0651 -167.9674 88° East 543 625 39,000  Level FlightAware Transoceanic
Sat 09:54:00 AM 44.0705 -167.7578 88° East 543 625 39,000  Level FlightAware Transoceanic
Sat 09:55:00 AM 44.0755 -167.5482 88° East 543 625 39,000  Level FlightAware Transoceanic
Sat 09:56:00 AM 44.0801 -167.3386 88° East 543 625 39,000  Level FlightAware Transoceanic
Sat 09:57:00 AM 44.0843 -167.1289 88° East 543 625 39,000  Level FlightAware Transoceanic
Sat 09:58:00 AM 44.0882 -166.9191 89° East 543 625 39,000  Level FlightAware Transoceanic
Sat 09:59:00 AM 44.0917 -166.7094 89° East 543 625 39,000  Level FlightAware Transoceanic
Sat 10:00:00 AM 44.0947 -166.4996 89° East 543 625 39,000  Level FlightAware Transoceanic
Sat 10:00:01 AM 44.1000 -166.5833 89° East 537 618 39,000  Level Oakland Oceanic (ODAPS)
Sat 10:01:00 AM 44.0974 -166.2898 89° East 543 625 39,000  Level FlightAware Transoceanic
Sat 10:02:00 AM 44.0998 -166.0800 89° East 543 625 39,000  Level FlightAware Transoceanic
Sat 10:03:00 AM 44.1017 -165.8702 89° East 543 625 39,000  Level FlightAware Transoceanic
Sat 10:04:00 AM 44.1032 -165.6604 89° East 543 625 39,000  Level FlightAware Transoceanic
Sat 10:05:00 AM 44.1044 -165.4505 90° East 543 625 39,000  Level FlightAware Transoceanic
Sat 10:06:00 AM 44.1101 -165.3479 90° East 537 618 39,000  Level FlightAware Transoceanic
Sat 10:07:00 AM 44.1105 -165.1420 90° East 537 618 39,000  Level FlightAware Transoceanic
Sat 10:08:00 AM 44.1105 -164.9361 90° East 537 618 39,000  Level FlightAware Transoceanic
Sat 10:09:00 AM 44.1101 -164.7301 90° East 537 618 39,000  Level FlightAware Transoceanic
Sat 10:10:00 AM 44.1094 -164.5242 90° East 537 618 39,000  Level FlightAware Transoceanic
Sat 10:11:00 AM 44.1083 -164.3183 90° East 537 618 39,000  Level FlightAware Transoceanic
Sat 10:12:00 AM 44.1068 -164.1124 91° East 537 618 39,000  Level FlightAware Transoceanic
Sat 10:13:00 AM 44.1050 -163.9065 91° East 537 618 39,000  Level FlightAware Transoceanic
Sat 10:13:56 AM 44.1000 -163.7167 91° East 539 620 39,000  Level Oakland Oceanic (ODAPS)
Sat 10:14:00 AM 44.1028 -163.7006 91° East 537 618 39,000  Level FlightAware Transoceanic
Sat 10:15:00 AM 44.1002 -163.4947 91° East 537 618 39,000  Level FlightAware Transoceanic
Sat 10:16:00 AM 44.0973 -163.2889 91° East 537 618 39,000  Level FlightAware Transoceanic
Sat 10:17:00 AM 44.0940 -163.0831 91° East 537 618 39,000  Level FlightAware Transoceanic
Sat 10:18:00 AM 44.0903 -162.8772 91° East 537 618 39,000  Level FlightAware Transoceanic
Sat 10:19:00 AM 44.0862 -162.6715 92° East 537 618 39,000  Level FlightAware Transoceanic
Sat 10:20:00 AM 44.0801 -162.4765 92° East 539 620 39,000  Level FlightAware Transoceanic
Sat 10:21:00 AM 44.0754 -162.2699 92° East 539 620 39,000  Level FlightAware Transoceanic
Sat 10:22:00 AM 44.0704 -162.0633 92° East 539 620 39,000  Level FlightAware Transoceanic
Sat 10:23:00 AM 44.0651 -161.8568 92° East 539 620 39,000  Level FlightAware Transoceanic
Sat 10:24:00 AM 44.0593 -161.6503 92° East 539 620 39,000  Level FlightAware Transoceanic
Sat 10:25:00 AM 44.0532 -161.4438 92° East 539 620 39,000  Level FlightAware Transoceanic
Sat 10:26:00 AM 44.0467 -161.2374 93° East 539 620 39,000  Level FlightAware Transoceanic
Sat 10:27:00 AM 44.0399 -161.0310 93° East 539 620 39,000  Level FlightAware Transoceanic
Sat 10:27:45 AM 44.0333 -160.8167 93° East 547 629 39,000  Level Oakland Oceanic (ODAPS)
Sat 10:28:00 AM 44.0326 -160.8247 93° East 539 620 39,000  Level FlightAware Transoceanic
Sat 10:29:00 AM 44.0250 -160.6185 93° East 539 620 39,000  Level FlightAware Transoceanic
Sat 10:30:00 AM 44.0171 -160.4122 93° East 539 620 39,000  Level FlightAware Transoceanic
Sat 10:31:00 AM 44.0087 -160.2061 93° East 539 620 39,000  Level FlightAware Transoceanic
Sat 10:31:42 AM 44.0000 -160.0000 94° East 553 636 39,000  Level Oakland Oceanic (ODAPS)
Sat 10:32:00 AM 44.0000 -160.0000 94° East 539 620 39,000  Level FlightAware Transoceanic
Sat 10:33:00 AM 43.9759 -159.5775 95° East 547 629 39,000  Level FlightAware Transoceanic
Sat 10:34:00 AM 43.9633 -159.3665 95° East 547 629 39,000  Level FlightAware Transoceanic
Sat 10:35:00 AM 43.9503 -159.1554 95° East 547 629 39,000  Level FlightAware Transoceanic
Sat 10:36:00 AM 43.9369 -158.9445 95° East 547 629 39,000  Level FlightAware Transoceanic
Sat 10:37:00 AM 43.9354 -158.9221 95° East 553 636 39,000  Level FlightAware Transoceanic
Sat 10:38:00 AM 43.9213 -158.7068 95° East 553 636 39,000  Level FlightAware Transoceanic
Sat 10:39:00 AM 43.9068 -158.4916 95° East 553 636 39,000  Level FlightAware Transoceanic
Sat 10:40:00 AM 43.8918 -158.2765 96° East 553 636 39,000  Level FlightAware Transoceanic
Sat 10:41:00 AM 43.8765 -158.0616 96° East 553 636 39,000  Level FlightAware Transoceanic
Sat 10:41:47 AM 43.8667 -157.8667 96° East 561 646 39,000  Level Oakland Oceanic (ODAPS)
Sat 10:42:00 AM 43.8608 -157.8467 96° East 553 636 39,000  Level FlightAware Transoceanic
Sat 10:43:00 AM 43.8446 -157.6320 96° East 553 636 39,000  Level FlightAware Transoceanic
Sat 10:44:00 AM 43.8281 -157.4173 96° East 553 636 39,000  Level FlightAware Transoceanic
Sat 10:45:00 AM 43.8111 -157.2028 96° East 553 636 39,000  Level FlightAware Transoceanic
Sat 10:46:00 AM 43.7938 -156.9885 96° East 553 636 39,000  Level FlightAware Transoceanic
Sat 10:47:00 AM 43.7760 -156.7742 97° East 553 636 39,000  Level FlightAware Transoceanic
Sat 10:47:59 AM 43.7500 -156.5000 97° East 561 646 39,000  Level Oakland Oceanic (ODAPS)
Sat 10:48:00 AM 43.7478 -156.4016 97° East 561 646 39,000  Level FlightAware Transoceanic
Sat 10:49:00 AM 43.7293 -156.1928 97° East 561 646 39,000  Level FlightAware Transoceanic
Sat 10:50:00 AM 43.7104 -155.9841 97° East 561 646 39,000  Level FlightAware Transoceanic
Sat 10:51:00 AM 43.6912 -155.7756 97° East 561 646 39,000  Level FlightAware Transoceanic
Sat 10:52:00 AM 43.6715 -155.5672 97° East 561 646 39,000  Level FlightAware Transoceanic
Sat 10:53:00 AM 43.6515 -155.3589 98° East 561 646 39,000  Level FlightAware Transoceanic
Sat 10:54:00 AM 43.6296 -155.1877 98° East 561 646 39,000  Level FlightAware Transoceanic
Sat 10:55:00 AM 43.6081 -154.9695 98° East 561 646 39,000  Level FlightAware Transoceanic
Sat 10:55:30 AM 43.6000 -154.8833 98° East 560 644 39,000  Level Oakland Oceanic (ODAPS)
Sat 10:56:00 AM 43.5862 -154.7515 98° East 561 646 39,000  Level FlightAware Transoceanic
Sat 10:57:00 AM 43.5638 -154.5336 98° East 561 646 39,000  Level FlightAware Transoceanic
Sat 10:58:00 AM 43.5410 -154.3159 98° East 561 646 39,000  Level FlightAware Transoceanic
Sat 10:59:00 AM 43.5179 -154.0983 98° East 561 646 39,000  Level FlightAware Transoceanic
Sat 11:00:00 AM 43.4943 -153.8810 99° East 561 646 39,000  Level FlightAware Transoceanic
Sat 11:01:00 AM 43.4696 -153.6537 99° East 560 644 39,000  Level FlightAware Transoceanic
Sat 11:02:00 AM 43.4465 -153.4493 99° East 560 644 39,000  Level FlightAware Transoceanic
Sat 11:03:00 AM 43.4231 -153.2450 99° East 560 644 39,000  Level FlightAware Transoceanic
Sat 11:04:00 AM 43.3994 -153.0409 99° East 560 644 39,000  Level FlightAware Transoceanic
Sat 11:05:00 AM 43.3753 -152.8370 99° East 560 644 39,000  Level FlightAware Transoceanic
Sat 11:06:00 AM 43.3508 -152.6332 99° East 560 644 39,000  Level FlightAware Transoceanic
Sat 11:07:00 AM 43.3260 -152.4296 100° East 560 644 39,000  Level FlightAware Transoceanic
Sat 11:08:00 AM 43.3008 -152.2262 100° East 560 644 39,000  Level FlightAware Transoceanic
Sat 11:09:00 AM 43.2752 -152.0229 100° East 560 644 39,000  Level FlightAware Transoceanic
Sat 11:09:22 AM 43.2667 -151.9667 100° East 558 642 39,000  Level Oakland Oceanic (ODAPS)
Sat 11:10:00 AM 43.2493 -151.8198 100° East 560 644 39,000  Level FlightAware Transoceanic
Sat 11:11:00 AM 43.2230 -151.6169 100° East 560 644 39,000  Level FlightAware Transoceanic
Sat 11:12:00 AM 43.1964 -151.4141 100° East 560 644 39,000  Level FlightAware Transoceanic
Sat 11:13:00 AM 43.1694 -151.2116 100° East 560 644 39,000  Level FlightAware Transoceanic
Sat 11:14:00 AM 43.1421 -151.0092 101° East 560 644 39,000  Level FlightAware Transoceanic
Sat 11:15:00 AM 43.1107 -150.7846 101° East 558 642 39,000  Level FlightAware Transoceanic
Sat 11:16:00 AM 43.0835 -150.5882 101° East 558 642 39,000  Level FlightAware Transoceanic
Sat 11:17:00 AM 43.0560 -150.3920 101° East 558 642 39,000  Level FlightAware Transoceanic
Sat 11:18:00 AM 43.0282 -150.1959 101° East 558 642 39,000  Level FlightAware Transoceanic
Sat 11:18:53 AM 43.0000 -150.0000 102° East 553 636 39,000  Level Oakland Oceanic (ODAPS)
Sat 11:19:00 AM 43.0000 -150.0000 102° East 558 642 39,000  Level FlightAware Transoceanic
Sat 11:20:00 AM 42.9693 -149.7982 102° East 558 642 39,000  Level FlightAware Transoceanic
Sat 11:21:00 AM 42.9383 -149.5966 102° East 558 642 39,000  Level FlightAware Transoceanic
Sat 11:22:00 AM 42.9069 -149.3952 102° East 558 642 39,000  Level FlightAware Transoceanic
Sat 11:23:00 AM 42.8751 -149.1939 102° East 558 642 39,000  Level FlightAware Transoceanic
Sat 11:23:13 AM 42.8667 -149.1000 102° East 552 635 39,000  Level Oakland Oceanic (ODAPS)
Sat 11:24:00 AM 42.8430 -148.9930 102° East 558 642 39,000  Level FlightAware Transoceanic
Sat 11:25:00 AM 42.8066 -148.7681 103° East 553 636 39,000  Level FlightAware Transoceanic
Sat 11:26:00 AM 42.7731 -148.5635 103° East 553 636 39,000  Level FlightAware Transoceanic
Sat 11:27:00 AM 42.7393 -148.3592 103° East 553 636 39,000  Level FlightAware Transoceanic
Sat 11:28:00 AM 42.7050 -148.1551 103° East 553 636 39,000  Level FlightAware Transoceanic
Sat 11:29:00 AM 42.6646 -147.8838 103° East 552 635 39,000  Level FlightAware Transoceanic
Sat 11:30:00 AM 42.6297 -147.6819 103° East 552 635 39,000  Level FlightAware Transoceanic
Sat 11:31:00 AM 42.5944 -147.4802 103° East 552 635 39,000  Level FlightAware Transoceanic
Sat 11:32:00 AM 42.5587 -147.2787 104° East 552 635 39,000  Level FlightAware Transoceanic
Sat 11:33:00 AM 42.5228 -147.0775 104° East 552 635 39,000  Level FlightAware Transoceanic
Sat 11:34:00 AM 42.4864 -146.8765 104° East 552 635 39,000  Level FlightAware Transoceanic
Sat 11:35:00 AM 42.4497 -146.6757 104° East 552 635 39,000  Level FlightAware Transoceanic
Sat 11:36:00 AM 42.4127 -146.4752 104° East 552 635 39,000  Level FlightAware Transoceanic
Sat 11:37:00 AM 42.3753 -146.2749 104° East 552 635 39,000  Level FlightAware Transoceanic
Sat 11:37:08 AM 42.3667 -146.3000 104° East 552 635 39,000  Level Oakland Oceanic (ODAPS)
Sat 11:38:00 AM 42.3376 -146.0749 104° East 552 635 39,000  Level FlightAware Transoceanic
Sat 11:39:00 AM 42.2995 -145.8751 105° East 552 635 39,000  Level FlightAware Transoceanic
Sat 11:40:00 AM 42.2611 -145.6755 105° East 552 635 39,000  Level FlightAware Transoceanic
Sat 11:41:00 AM 42.2223 -145.4762 105° East 552 635 39,000  Level FlightAware Transoceanic
Sat 11:42:00 AM 42.1832 -145.2771 105° East 552 635 39,000  Level FlightAware Transoceanic
Sat 11:43:00 AM 42.1369 -145.0987 105° East 552 635 39,000  Level FlightAware Transoceanic
Sat 11:44:00 AM 42.0974 -144.8993 105° East 552 635 39,000  Level FlightAware Transoceanic
Sat 11:45:00 AM 42.0575 -144.7002 105° East 552 635 39,000  Level FlightAware Transoceanic
Sat 11:46:00 AM 42.0173 -144.5014 105° East 552 635 39,000  Level FlightAware Transoceanic
Sat 11:47:00 AM 41.9768 -144.3028 105° East 552 635 39,000  Level FlightAware Transoceanic
Sat 11:48:00 AM 41.9359 -144.1044 106° East 552 635 39,000  Level FlightAware Transoceanic
Sat 11:49:00 AM 41.8946 -143.9063 106° East 552 635 39,000  Level FlightAware Transoceanic
Sat 11:50:00 AM 41.8531 -143.7085 106° East 552 635 39,000  Level FlightAware Transoceanic
Sat 11:50:59 AM 41.8333 -143.5500 106° East 542 624 39,000  Level Oakland Oceanic (ODAPS)
Sat 11:51:00 AM 41.8112 -143.5109 106° East 552 635 39,000  Level FlightAware Transoceanic
Sat 11:52:00 AM 41.7689 -143.3136 106° East 552 635 39,000  Level FlightAware Transoceanic
Sat 11:53:00 AM 41.7264 -143.1165 106° East 552 635 39,000  Level FlightAware Transoceanic
Sat 11:54:00 AM 41.6834 -142.9197 106° East 552 635 39,000  Level FlightAware Transoceanic
Sat 11:55:00 AM 41.6402 -142.7232 106° East 552 635 39,000  Level FlightAware Transoceanic
Sat 11:56:00 AM 41.5966 -142.5269 107° East 552 635 39,000  Level FlightAware Transoceanic
Sat 11:57:00 AM 41.5677 -142.3566 107° East 542 624 39,000  Level FlightAware Transoceanic
Sat 11:58:00 AM 41.5223 -142.1586 107° East 542 624 39,000  Level FlightAware Transoceanic
Sat 11:59:00 AM 41.4765 -141.9610 107° East 542 624 39,000  Level FlightAware Transoceanic
Sat 12:00:00 PM 41.4303 -141.7636 107° East 542 624 39,000  Level FlightAware Transoceanic
Sat 12:01:00 PM 41.3838 -141.5665 108° East 542 624 39,000  Level FlightAware Transoceanic
Sat 12:02:00 PM 41.3370 -141.3697 108° East 542 624 39,000  Level FlightAware Transoceanic
Sat 12:03:00 PM 41.2899 -141.1732 108° East 542 624 39,000  Level FlightAware Transoceanic
Sat 12:04:00 PM 41.2424 -140.9769 108° East 542 624 39,000  Level FlightAware Transoceanic
Sat 12:04:51 PM 41.2333 -140.9167 108° East 543 625 39,000  Level Oakland Oceanic (ODAPS)
Sat 12:05:00 PM 41.1946 -140.7810 108° East 542 624 39,000  Level FlightAware Transoceanic
Sat 12:06:00 PM 41.1464 -140.5853 108° East 542 624 39,000  Level FlightAware Transoceanic
Sat 12:07:00 PM 41.0979 -140.3899 108° East 542 624 39,000  Level FlightAware Transoceanic
Sat 12:08:00 PM 41.0491 -140.1948 108° East 542 624 39,000  Level FlightAware Transoceanic
Sat 12:09:00 PM 41.0000 -140.0000 101° East 542 624 39,000  Level FlightAware Transoceanic
Sat 12:09:50 PM 41.0000 -140.0000 101° East 538 619 39,000  Level Oakland Oceanic (ODAPS)
Sat 12:10:00 PM 40.9715 -139.8132 101° East 542 624 39,000  Level FlightAware Transoceanic
Sat 12:11:00 PM 40.9426 -139.6266 102° East 543 625 39,000  Level FlightAware Transoceanic
Sat 12:12:00 PM 40.9135 -139.4401 102° East 543 625 39,000  Level FlightAware Transoceanic
Sat 12:13:00 PM 40.8841 -139.2538 102° East 543 625 39,000  Level FlightAware Transoceanic
Sat 12:14:00 PM 40.8544 -139.0677 102° East 543 625 39,000  Level FlightAware Transoceanic
Sat 12:15:00 PM 40.8243 -138.8817 102° East 543 625 39,000  Level FlightAware Transoceanic
Sat 12:16:00 PM 40.8175 -138.8397 102° East 538 619 39,000  Level FlightAware Transoceanic
Sat 12:17:00 PM 40.7859 -138.6469 102° East 538 619 39,000  Level FlightAware Transoceanic
Sat 12:18:00 PM 40.7541 -138.4543 102° East 538 619 39,000  Level FlightAware Transoceanic
Sat 12:18:42 PM 40.7167 -138.2667 102° East 530 610 39,000  Level Oakland Oceanic (ODAPS)
Sat 12:19:00 PM 40.7219 -138.2619 103° East 538 619 39,000  Level FlightAware Transoceanic
Sat 12:20:00 PM 40.6894 -138.0697 103° East 538 619 39,000  Level FlightAware Transoceanic
Sat 12:21:00 PM 40.6566 -137.8777 103° East 538 619 39,000  Level FlightAware Transoceanic
Sat 12:22:00 PM 40.6234 -137.6859 103° East 538 619 39,000  Level FlightAware Transoceanic
Sat 12:23:00 PM 40.5900 -137.4942 103° East 538 619 39,000  Level FlightAware Transoceanic
Sat 12:24:00 PM 40.5562 -137.3028 103° East 538 619 39,000  Level FlightAware Transoceanic
Sat 12:25:00 PM 40.5176 -137.1157 103° East 530 610 39,000  Level FlightAware Transoceanic
Sat 12:26:00 PM 40.4833 -136.9246 103° East 530 610 39,000  Level FlightAware Transoceanic
Sat 12:27:00 PM 40.4487 -136.7336 103° East 530 610 39,000  Level FlightAware Transoceanic
Sat 12:28:00 PM 40.4138 -136.5428 104° East 530 610 39,000  Level FlightAware Transoceanic
Sat 12:29:00 PM 40.3786 -136.3523 104° East 530 610 39,000  Level FlightAware Transoceanic
Sat 12:30:00 PM 40.3431 -136.1619 104° East 530 610 39,000  Level FlightAware Transoceanic
Sat 12:31:00 PM 40.3072 -135.9718 104° East 530 610 39,000  Level FlightAware Transoceanic
Sat 12:32:00 PM 40.2711 -135.7818 104° East 530 610 39,000  Level FlightAware Transoceanic
Sat 12:32:35 PM 40.2500 -135.6667 104° East 523 602 39,000  Level Oakland Oceanic (ODAPS)
Sat 12:33:00 PM 40.2346 -135.5921 104° East 530 610 39,000  Level FlightAware Transoceanic
Sat 12:34:00 PM 40.1978 -135.4025 104° East 530 610 39,000  Level FlightAware Transoceanic
Sat 12:35:00 PM 40.1607 -135.2132 104° East 530 610 39,000  Level FlightAware Transoceanic
Sat 12:36:00 PM 40.1233 -135.0240 105° East 530 610 39,000  Level FlightAware Transoceanic
Sat 12:37:00 PM 40.0856 -134.8351 105° East 530 610 39,000  Level FlightAware Transoceanic
Sat 12:38:00 PM 40.0368 -134.5888 105° East 523 602 39,000  Level FlightAware Transoceanic
Sat 12:39:00 PM 40.0003 -134.4098 105° East 523 602 39,000  Level FlightAware Transoceanic
Sat 12:40:00 PM 39.9635 -134.2310 105° East 523 602 39,000  Level FlightAware Transoceanic
Sat 12:41:00 PM 39.9264 -134.0524 105° East 523 602 39,000  Level FlightAware Transoceanic
Sat 12:42:00 PM 39.8891 -133.8740 105° East 523 602 39,000  Level FlightAware Transoceanic
Sat 12:43:00 PM 39.8515 -133.6958 105° East 523 602 39,000  Level FlightAware Transoceanic
Sat 12:44:00 PM 39.8136 -133.5178 106° East 523 602 39,000  Level FlightAware Transoceanic
Sat 12:45:00 PM 39.7755 -133.3400 106° East 523 602 39,000  Level FlightAware Transoceanic
Sat 12:46:00 PM 39.7371 -133.1624 106° East 523 602 39,000  Level FlightAware Transoceanic
Sat 12:46:34 PM 39.7333 -133.1667 106° East 517 595 39,000  Level Oakland Oceanic (ODAPS)
Sat 12:47:00 PM 39.6984 -132.9849 106° East 523 602 39,000  Level FlightAware Transoceanic
Sat 12:48:00 PM 39.6594 -132.8077 106° East 523 602 39,000  Level FlightAware Transoceanic
Sat 12:49:00 PM 39.6202 -132.6307 106° East 523 602 39,000  Level FlightAware Transoceanic
Sat 12:50:00 PM 39.5807 -132.4539 106° East 523 602 39,000  Level FlightAware Transoceanic
Sat 12:51:00 PM 39.5410 -132.2773 106° East 523 602 39,000  Level FlightAware Transoceanic
Sat 12:52:00 PM 39.4985 -132.1037 106° East 517 595 39,000  Level FlightAware Transoceanic
Sat 12:53:00 PM 39.4584 -131.9273 106° East 517 595 39,000  Level FlightAware Transoceanic
Sat 12:54:00 PM 39.4180 -131.7511 107° East 517 595 39,000  Level FlightAware Transoceanic
Sat 12:55:00 PM 39.3774 -131.5750 107° East 517 595 39,000  Level FlightAware Transoceanic
Sat 12:56:00 PM 39.3365 -131.3992 107° East 517 595 39,000  Level FlightAware Transoceanic
Sat 12:57:00 PM 39.2954 -131.2236 107° East 517 595 39,000  Level FlightAware Transoceanic
Sat 12:57:17 PM 39.3000 -131.2500 107° East 514 592 39,000  Level Oakland Oceanic (ODAPS)
Sat 12:58:00 PM 39.2540 -131.0481 107° East 517 595 39,000  Level FlightAware Transoceanic
Sat 12:59:00 PM 39.2123 -130.8729 107° East 517 595 39,000  Level FlightAware Transoceanic
Sat 01:00:00 PM 39.1703 -130.6979 107° East 517 595 39,000  Level FlightAware Transoceanic
Sat 01:00:19 PM 39.1833 -130.7167 108° East 506 582 39,000  Level Oakland Oceanic (ODAPS)
Sat 01:01:00 PM 39.1282 -130.5231 107° East 517 595 39,000  Level FlightAware Transoceanic
Sat 01:02:00 PM 39.0857 -130.3485 107° East 517 595 39,000  Level FlightAware Transoceanic
Sat 01:03:00 PM 39.0437 -130.1779 107° East 514 592 39,000  Level FlightAware Transoceanic
Sat 01:04:00 PM 39.0000 -130.0000 102° East 514 592 39,000  Level FlightAware Transoceanic
Sat 01:04:28 PM 39.0000 -130.0000 102° East 524 603 39,000  Level Oakland Oceanic (ODAPS)
Sat 01:05:00 PM 38.9708 -129.8223 102° East 514 592 39,000  Level FlightAware Transoceanic
Sat 01:06:00 PM 38.9412 -129.6448 102° East 506 582 39,000  Level FlightAware Transoceanic
Sat 01:07:00 PM 38.9115 -129.4674 102° East 506 582 39,000  Level FlightAware Transoceanic
Sat 01:08:00 PM 38.8814 -129.2901 102° East 506 582 39,000  Level FlightAware Transoceanic
Sat 01:09:00 PM 38.8511 -129.1130 102° East 506 582 39,000  Level FlightAware Transoceanic
Sat 01:10:00 PM 38.8205 -128.9361 103° East 524 603 39,000  Level FlightAware Transoceanic
Sat 01:11:00 PM 38.7897 -128.7593 103° East 524 603 39,000  Level FlightAware Transoceanic
Sat 01:12:00 PM 38.7586 -128.5827 103° East 524 603 39,000  Level FlightAware Transoceanic
Sat 01:13:00 PM 38.7272 -128.4062 103° East 524 603 39,000  Level FlightAware Transoceanic
Sat 01:14:00 PM 38.6955 -128.2298 103° East 524 603 39,000  Level FlightAware Transoceanic
Sat 01:14:05 PM 38.6833 -128.2000 103° East 532 612 39,000  Level Oakland Oceanic (ODAPS)
Sat 01:15:00 PM 38.6636 -128.0537 103° East 524 603 39,000  Level FlightAware Transoceanic
Sat 01:16:00 PM 38.6315 -127.8777 103° East 524 603 39,000  Level FlightAware Transoceanic
Sat 01:17:00 PM 38.5990 -127.7018 103° East 524 603 39,000  Level FlightAware Transoceanic
Sat 01:17:59 PM 38.5631 -127.5094 111° Southeast 536 617 39,000  Level Oakland Center
Sat 01:18:00 PM 38.5663 -127.5261 103° East 524 603 39,000  Level FlightAware Transoceanic
Sat 01:19:00 PM 38.5334 -127.3506 104° East 524 603 39,000 -98 Level FlightAware Transoceanic
Sat 01:19:01 PM 38.5228 -127.2917 103° East 530 610 38,900  Descending Oakland Center
Sat 01:20:00 PM 38.4984 -127.1710 103° East 532 612 39,000 50 Climbing FlightAware Transoceanic
Sat 01:21:00 PM 38.4667 -127.0000 111° Southeast 532 612 39,000  Level FlightAware Transoceanic
Sat 01:22:00 PM 38.4094 -126.8114 111° Southeast 532 612 39,000  Level FlightAware Transoceanic
Sat 01:23:00 PM 38.3518 -126.6232 111° Southeast 532 612 39,000  Level FlightAware Transoceanic
Sat 01:25:04 PM 38.1880 -126.2470 103° East 527 606 39,000  Level FlightAware ADS-B
Sat 01:25:44 PM 38.1470 -126.1360 115° Southeast 528 608 39,000  Level FlightAware ADS-B
Sat 01:26:22 PM 38.1080 -126.0300 115° Southeast 530 610 39,000  Level FlightAware ADS-B
Sat 01:26:54 PM 38.0740 -125.9370 115° Southeast 531 611 39,000  Level FlightAware ADS-B
Sat 01:27:30 PM 38.0370 -125.8360 115° Southeast 532 612 39,000  Level FlightAware ADS-B
Sat 01:28:02 PM 38.0030 -125.7470 116° Southeast 532 612 39,000  Level FlightAware ADS-B
Sat 01:28:42 PM 37.9620 -125.6350 115° Southeast 533 613 39,000  Level FlightAware ADS-B
Sat 01:29:16 PM 37.9260 -125.5380 115° Southeast 532 612 39,000  Level FlightAware ADS-B
Sat 01:29:50 PM 37.8900 -125.4440 116° Southeast 533 613 39,000  Level FlightAware ADS-B
Sat 01:30:24 PM 37.8530 -125.3470 116° Southeast 533 613 39,000  Level FlightAware ADS-B
Sat 01:31:00 PM 37.8150 -125.2440 115° Southeast 532 612 39,000  Level FlightAware ADS-B
Sat 01:31:35 PM 37.7790 -125.1490 116° Southeast 531 611 39,000  Level FlightAware ADS-B
Sat 01:32:08 PM 37.7430 -125.0560 116° Southeast 531 611 39,000  Level FlightAware ADS-B
Sat 01:32:43 PM 37.7070 -124.9600 115° Southeast 531 611 39,000  Level FlightAware ADS-B
Sat 01:33:18 PM 37.6680 -124.8600 116° Southeast 531 611 39,000  Level FlightAware ADS-B
Sat 01:33:54 PM 37.6300 -124.7600 116° Southeast 529 609 39,000  Level FlightAware ADS-B
Sat 01:34:30 PM 37.5930 -124.6620 115° Southeast 530 610 39,000  Level FlightAware ADS-B
Sat 01:35:02 PM 37.5570 -124.5710 116° Southeast 533 613 39,000  Level FlightAware ADS-B
Sat 01:35:38 PM 37.5190 -124.4710 116° Southeast 534 615 39,000  Level FlightAware ADS-B
Sat 01:36:15 PM 37.4790 -124.3690 116° Southeast 535 616 39,000  Level FlightAware ADS-B
Sat 01:36:51 PM 37.4410 -124.2720 116° Southeast 535 616 39,000  Level FlightAware ADS-B
Sat 01:37:26 PM 37.4010 -124.1700 116° Southeast 536 617 39,000  Level FlightAware ADS-B
Sat 01:37:58 PM 37.3650 -124.0780 116° Southeast 537 618 39,000  Level FlightAware ADS-B
Sat 01:38:32 PM 37.3300 -123.9890 116° Southeast 536 617 39,000  Level FlightAware ADS-B
Sat 01:39:08 PM 37.2890 -123.8850 116° Southeast 537 618 39,000  Level FlightAware ADS-B
Sat 01:39:46 PM 37.2470 -123.7790 116° Southeast 538 619 39,000  Level FlightAware ADS-B
Sat 01:40:18 PM 37.2110 -123.6890 117° Southeast 538 619 39,000  Level FlightAware ADS-B
Sat 01:40:54 PM 37.1720 -123.5900 116° Southeast 538 619 39,000  Level FlightAware ADS-B
Sat 01:41:30 PM 37.1310 -123.4880 117° Southeast 538 619 39,000  Level FlightAware ADS-B
Sat 01:42:04 PM 37.0940 -123.3960 117° Southeast 539 620 39,000  Level FlightAware ADS-B
Sat 01:42:40 PM 37.0530 -123.2930 116° Southeast 539 620 39,000  Level FlightAware ADS-B
Sat 01:43:10 PM 37.0200 -123.2110 117° Southeast 538 619 39,000  Level FlightAware ADS-B
Sat 01:43:51 PM 36.9740 -123.0980 117° Southeast 538 619 39,000  Level FlightAware ADS-B
Sat 01:44:26 PM 36.9350 -123.0010 117° Southeast 541 623 39,000  Level FlightAware ADS-B
Sat 01:44:58 PM 36.8980 -122.9110 117° Southeast 540 621 39,000  Level FlightAware ADS-B
Sat 01:45:35 PM 36.8560 -122.8090 117° Southeast 541 623 39,000  Level FlightAware ADS-B
Sat 01:46:10 PM 36.8160 -122.7100 117° Southeast 541 623 39,000  Level FlightAware ADS-B
Sat 01:46:47 PM 36.7750 -122.6100 117° Southeast 541 623 39,000  Level FlightAware ADS-B
Sat 01:47:20 PM 36.7370 -122.5180 117° Southeast 542 624 39,000  Level FlightAware ADS-B
Sat 01:47:50 PM 36.7018 -122.4330 117° Southeast 544 626 39,000  Level FlightAware ADS-B
Sat 01:48:23 PM 36.6628 -122.3390 117° Southeast 545 627 39,000  Level FlightAware ADS-B
Sat 01:49:05 PM 36.6160 -122.2270 117° Southeast 544 626 39,000  Level FlightAware ADS-B
Sat 01:49:40 PM 36.5740 -122.1260 117° Southeast 546 628 39,000  Level FlightAware ADS-B
Sat 01:50:16 PM 36.5330 -122.0290 118° Southeast 547 629 39,000  Level FlightAware ADS-B
Sat 01:50:37 PM 36.5697 -122.1150 298° West 547 629 39,000  Level FlightAware ADS-B
Sat 01:51:24 PM 36.4530 -121.8390 118° Southeast 546 628 39,000  Level FlightAware ADS-B
Sat 01:52:05 PM 36.4112 -121.7380 117° Southeast 545 627 39,000  Level FlightAware ADS-B
Sat 01:52:37 PM 36.3680 -121.6360 118° Southeast 546 628 39,000  Level FlightAware ADS-B
Sat 01:53:11 PM 36.3280 -121.5410 118° Southeast 545 627 39,000  Level FlightAware ADS-B
Sat 01:53:43 PM 36.2900 -121.4530 118° Southeast 544 626 39,000  Level FlightAware ADS-B
Sat 01:54:19 PM 36.2470 -121.3530 118° Southeast 545 627 39,000  Level FlightAware ADS-B
Sat 01:54:55 PM 36.2050 -121.2550 118° Southeast 546 628 39,000  Level FlightAware ADS-B
Sat 01:55:31 PM 36.1640 -121.1580 118° Southeast 547 629 39,000  Level FlightAware ADS-B
Sat 01:56:03 PM 36.1250 -121.0680 118° Southeast 547 629 39,000  Level FlightAware ADS-B
Sat 01:56:39 PM 36.0820 -120.9680 118° Southeast 546 628 39,000  Level FlightAware ADS-B
Sat 01:57:13 PM 36.0410 -120.8750 119° Southeast 546 628 39,000  Level FlightAware ADS-B
Sat 01:57:49 PM 35.9920 -120.7800 122° Southeast 545 627 39,000  Level FlightAware ADS-B
Sat 01:58:25 PM 35.9360 -120.6900 128° Southeast 545 627 39,000  Level FlightAware ADS-B
Sat 01:58:58 PM 35.8860 -120.6120 128° Southeast 546 628 39,000  Level FlightAware ADS-B
Sat 01:59:34 PM 35.8290 -120.5220 128° Southeast 547 629 39,000  Level FlightAware ADS-B
Sat 02:00:10 PM 35.7720 -120.4340 129° Southeast 547 629 39,000  Level FlightAware ADS-B
Sat 02:00:44 PM 35.7210 -120.3550 128° Southeast 548 631 39,000  Level FlightAware ADS-B
Sat 02:01:24 PM 35.6560 -120.2530 128° Southeast 549 632 39,000  Level FlightAware ADS-B
Sat 02:02:04 PM 35.6020 -120.1700 129° Southeast 549 632 39,000 -822 Level FlightAware ADS-B
Sat 02:02:37 PM 35.5430 -120.0790 129° Southeast 543 625 38,000 -2,294 Descending FlightAware ADS-B
Sat 02:03:12 PM 35.4860 -119.9920 129° Southeast 558 642 36,400 -2,206 Descending FlightAware ADS-B
Sat 02:03:45 PM 35.4350 -119.9140 129° Southeast 557 641 35,500 -1,606 Descending FlightAware ADS-B
Sat 02:04:23 PM 35.3730 -119.8200 129° Southeast 551 634 34,500 -1,890 Descending FlightAware ADS-B
Sat 02:04:58 PM 35.3180 -119.7350 128° Southeast 543 625 33,200 -2,206 Descending FlightAware ADS-B
Sat 02:05:31 PM 35.2630 -119.6580 131° Southeast 532 612 32,000 -2,087 Descending FlightAware ADS-B
Sat 02:06:07 PM 35.1960 -119.5910 141° Southeast 517 595 30,800 -1,781 Descending FlightAware ADS-B
Sat 02:06:35 PM 35.1350 -119.5570 155° Southeast 492 566 30,100 -1,619 Descending FlightAware ADS-B
Sat 02:07:10 PM 35.0640 -119.5430 171° South 445 512 29,100 -2,471 Descending FlightAware ADS-B
Sat 02:07:43 PM 34.9990 -119.5370 176° South 444 511 27,300 -2,000 Descending FlightAware ADS-B
Sat 02:08:22 PM 34.9170 -119.5230 172° South 435 501 26,700 -960 Descending FlightAware ADS-B
Sat 02:08:33 PM 34.8970 -119.5130 158° South 436 502 26,500 -2,488 Descending FlightAware ADS-B
Sat 02:09:03 PM 34.8510 -119.4690 142° Southeast 433 498 25,000 -2,323 Descending FlightAware ADS-B
Sat 02:09:35 PM 34.8050 -119.4130 135° Southeast 434 499 24,100 -2,609 Descending FlightAware ADS-B
Sat 02:10:12 PM 34.7540 -119.3520 135° Southeast 418 481 22,000 -2,385 Descending FlightAware ADS-B
Sat 02:10:53 PM 34.7030 -119.2900 135° Southeast 412 474 21,000 -2,320 Descending FlightAware ADS-B
Sat 02:11:27 PM 34.6500 -119.2270 136° Southeast 398 458 19,100 -2,308 Descending FlightAware ADS-B
Sat 02:11:58 PM 34.6120 -119.1830 136° Southeast 397 457 18,500 -1,455 Descending FlightAware ADS-B
Sat 02:12:33 PM 34.5650 -119.1270 136° Southeast 390 449 17,500 -1,562 Descending FlightAware ADS-B
Sat 02:13:11 PM 34.5150 -119.0690 136° Southeast 381 438 16,600 -1,478 Descending FlightAware ADS-B
Sat 02:13:42 PM 34.4790 -119.0250 135° Southeast 374 430 15,800 -1,543 Descending FlightAware ADS-B
Sat 02:14:21 PM 34.4290 -118.9660 136° Southeast 367 422 14,800 -1,543 Descending FlightAware ADS-B
Sat 02:14:52 PM 34.3930 -118.9240 136° Southeast 364 419 14,000 -1,579 Descending FlightAware ADS-B
Sat 02:15:18 PM 34.3600 -118.8890 139° Southeast 358 412 13,300 -1,200 Descending FlightAware ADS-B
Sat 02:15:37 PM 34.3340 -118.8740 155° Southeast 348 400 13,100 -923 Descending FlightAware ADS-B
Sat 02:16:10 PM 34.2840 -118.8550 163° South 333 383 12,500 -831 Descending FlightAware ADS-B
Sat 02:16:42 PM 34.2360 -118.8370 163° South 329 379 12,200 -592 Descending FlightAware ADS-B
Sat 02:17:21 PM 34.1810 -118.8170 163° South 329 379 11,800 -789 Descending FlightAware ADS-B
Sat 02:17:58 PM 34.1270 -118.7970 163° South 324 373 11,200 -1,029 Descending FlightAware ADS-B
Sat 02:18:31 PM 34.0780 -118.7790 163° South 318 366 10,600 -1,080 Descending FlightAware ADS-B
Sat 02:18:48 PM 34.0560 -118.7670 156° South 317 365 10,300 -857 Descending FlightAware ADS-B
Sat 02:18:59 PM 34.0450 -118.7520 132° Southeast 319 367 10,200 -316 Descending FlightAware ADS-B
Sat 02:19:07 PM 34.0380 -118.7380 121° Southeast 320 368 10,200  Level FlightAware ADS-B
Sat 02:19:15 PM 34.0350 -118.7230 104° East 314 361 10,200  Level FlightAware ADS-B
Sat 02:19:46 PM 34.0300 -118.6740 97° East 286 329 10,200 -86 Level FlightAware ADS-B
Sat 02:20:25 PM 34.0250 -118.6140 96° East 257 296 10,100 -407 Descending FlightAware ADS-B
Sat 02:20:45 PM 34.0230 -118.5880 95° East 257 296 9,800 -1,091 Descending FlightAware ADS-B
Sat 02:20:58 PM 34.0210 -118.5670 97° East 256 295 9,500 -973 Descending FlightAware ADS-B
Sat 02:21:22 PM 34.0180 -118.5350 96° East 249 287 9,200 -837 Descending FlightAware ADS-B
Sat 02:21:41 PM 34.0150 -118.5080 98° East 246 283 8,900 -923 Descending FlightAware ADS-B
Sat 02:22:01 PM 34.0130 -118.4810 95° East 244 281 8,600 -923 Descending FlightAware ADS-B
Sat 02:22:20 PM 34.0110 -118.4560 96° East 243 280 8,300 -1,067 Descending FlightAware ADS-B
Sat 02:22:46 PM 34.0130 -118.4200 86° East 242 278 7,800 -837 Descending FlightAware ADS-B
Sat 02:23:03 PM 34.0150 -118.3980 84° East 235 270 7,700 -615 Descending FlightAware ADS-B
Sat 02:23:25 PM 34.0160 -118.3700 88° East 225 259 7,400 -698 Descending FlightAware ADS-B
Sat 02:23:46 PM 34.0180 -118.3440 85° East 214 246 7,200 -585 Descending FlightAware ADS-B
Sat 02:24:06 PM 34.0210 -118.3210 81° East 204 235 7,000 -1,091 Descending FlightAware ADS-B
Sat 02:24:30 PM 34.0230 -118.2960 84° East 198 228 6,400 -1,650 Descending FlightAware ADS-B
Sat 02:24:46 PM 34.0250 -118.2780 82° East 199 229 5,900 -1,953 Descending FlightAware ADS-B
Sat 02:25:13 PM 34.0280 -118.2480 83° East 198 228 5,000 -1,787 Descending FlightAware ADS-B
Sat 02:25:33 PM 34.0300 -118.2260 84° East 199 229 4,500 -1,000 Descending FlightAware ADS-B
Sat 02:26:01 PM 34.0210 -118.1980 111° Southeast 196 226 4,200 -514 Descending FlightAware ADS-B
Sat 02:26:08 PM 34.0160 -118.1950 154° Southeast 193 222 4,200  Level FlightAware ADS-B
Sat 02:26:12 PM 34.0120 -118.1940 168° South 189 217 4,200 -857 Level FlightAware ADS-B
Sat 02:26:36 PM 33.9920 -118.1890 168° South 186 214 3,800 -1,071 Descending FlightAware ADS-B
Sat 02:26:40 PM 33.9890 -118.1890 180° South 186 214 3,700 -889 Descending FlightAware ADS-B
Sat 02:27:03 PM 33.9760 -118.2000 215° Southwest 184 212 3,400 -923 Descending FlightAware ADS-B
Sat 02:27:06 PM 33.9740 -118.2040 239° Southwest 184 212 3,300 -571 Descending FlightAware ADS-B
Sat 02:27:24 PM 33.9690 -118.2220 251° West 176 203 3,200 -343 Descending FlightAware ADS-B
Sat 02:27:41 PM 33.9670 -118.2390 262° West 177 204 3,100 -811 Descending FlightAware ADS-B
Sat 02:28:01 PM 33.9660 -118.2580 266° West 178 205 2,700 -894 Descending FlightAware ADS-B
Sat 02:28:28 PM 33.9620 -118.2850 260° West 175 201 2,400 -766 Descending FlightAware ADS-B
Sat 02:28:48 PM 33.9610 -118.3000 265° West 172 198 2,100 -1,050 Descending FlightAware ADS-B
Sat 02:29:08 PM 33.9590 -118.3200 263° West 160 184 1,700 -1,135 Descending FlightAware ADS-B
Sat 02:29:25 PM 33.9570 -118.3350 261° West 156 180 1,400 -955 Descending FlightAware ADS-B
Sat 02:29:52 PM 33.9540 -118.3600 262° West 151 174 1,000 -894 Descending FlightAware ADS-B
Sat 02:30:12 PM 33.9530 -118.3770 266° West 145 167 700 -818 Descending FlightAware ADS-B
Sat 02:30:36 PM 33.9510 -118.3950 262° West 139 160 400 -393 Descending FlightAware ADS-B
Sat 02:31:13 PM 33.9480 -118.4200 262° West 138 159 300 -162 Descending FlightAware ADS-B

Login

Don't have an account? Register now (free) for customized features, flight alerts, and more!